sensor_id;sensor_type;location;lat;lon;timestamp;P1;durP1;ratioP1;P2;durP2;ratioP2
71496;SDS011;59317;53.218;5.730;2023-07-31T00:01:25;6.85;;;1.48;;
71496;SDS011;59317;53.218;5.730;2023-07-31T00:03:51;9.80;;;1.70;;
71496;SDS011;59317;53.218;5.730;2023-07-31T00:06:17;10.07;;;1.47;;
71496;SDS011;59317;53.218;5.730;2023-07-31T00:08:43;10.90;;;1.67;;
71496;SDS011;59317;53.218;5.730;2023-07-31T00:11:09;12.27;;;1.87;;
71496;SDS011;59317;53.218;5.730;2023-07-31T00:13:35;9.47;;;1.53;;
71496;SDS011;59317;53.218;5.730;2023-07-31T00:16:01;9.90;;;1.70;;
71496;SDS011;59317;53.218;5.730;2023-07-31T00:18:27;7.38;;;1.63;;
71496;SDS011;59317;53.218;5.730;2023-07-31T00:20:53;10.50;;;1.70;;
71496;SDS011;59317;53.218;5.730;2023-07-31T00:23:19;10.15;;;1.48;;
71496;SDS011;59317;53.218;5.730;2023-07-31T00:25:45;9.68;;;1.75;;
71496;SDS011;59317;53.218;5.730;2023-07-31T00:28:11;9.07;;;1.90;;
71496;SDS011;59317;53.218;5.730;2023-07-31T00:30:37;9.93;;;1.60;;
71496;SDS011;59317;53.218;5.730;2023-07-31T00:33:03;9.57;;;1.55;;
71496;SDS011;59317;53.218;5.730;2023-07-31T00:35:29;9.95;;;1.70;;
71496;SDS011;59317;53.218;5.730;2023-07-31T00:37:56;9.13;;;1.70;;
71496;SDS011;59317;53.218;5.730;2023-07-31T00:40:22;6.78;;;1.75;;
71496;SDS011;59317;53.218;5.730;2023-07-31T00:42:48;8.32;;;1.45;;
71496;SDS011;59317;53.218;5.730;2023-07-31T00:45:14;8.48;;;1.77;;
71496;SDS011;59317;53.218;5.730;2023-07-31T00:47:40;10.18;;;1.70;;
71496;SDS011;59317;53.218;5.730;2023-07-31T00:50:06;10.20;;;1.80;;
71496;SDS011;59317;53.218;5.730;2023-07-31T00:52:32;7.68;;;1.70;;
71496;SDS011;59317;53.218;5.730;2023-07-31T00:54:59;9.63;;;1.98;;
71496;SDS011;59317;53.218;5.730;2023-07-31T00:57:25;8.93;;;1.60;;
71496;SDS011;59317;53.218;5.730;2023-07-31T00:59:51;10.30;;;1.60;;
71496;SDS011;59317;53.218;5.730;2023-07-31T01:02:17;8.73;;;1.70;;
71496;SDS011;59317;53.218;5.730;2023-07-31T01:04:43;11.17;;;1.70;;
71496;SDS011;59317;53.218;5.730;2023-07-31T01:07:19;9.27;;;1.50;;
71496;SDS011;59317;53.218;5.730;2023-07-31T01:09:52;8.10;;;1.35;;
71496;SDS011;59317;53.218;5.730;2023-07-31T01:12:21;11.30;;;1.73;;
71496;SDS011;59317;53.218;5.730;2023-07-31T01:17:26;9.32;;;1.45;;
71496;SDS011;59317;53.218;5.730;2023-07-31T01:19:53;8.93;;;1.40;;
71496;SDS011;59317;53.218;5.730;2023-07-31T01:24:56;7.82;;;1.23;;
71496;SDS011;59317;53.218;5.730;2023-07-31T01:27:28;8.88;;;1.48;;
71496;SDS011;59317;53.218;5.730;2023-07-31T01:30:00;8.73;;;1.53;;
71496;SDS011;59317;53.218;5.730;2023-07-31T01:32:29;7.70;;;1.70;;
71496;SDS011;59317;53.218;5.730;2023-07-31T01:34:56;6.82;;;1.50;;
71496;SDS011;59317;53.218;5.730;2023-07-31T01:37:27;8.05;;;1.50;;
71496;SDS011;59317;53.218;5.730;2023-07-31T01:39:54;10.07;;;1.80;;
71496;SDS011;59317;53.218;5.730;2023-07-31T01:42:19;10.17;;;1.97;;
71496;SDS011;59317;53.218;5.730;2023-07-31T01:44:45;8.57;;;1.70;;
71496;SDS011;59317;53.218;5.730;2023-07-31T01:47:11;8.37;;;1.50;;
71496;SDS011;59317;53.218;5.730;2023-07-31T01:49:37;9.00;;;1.55;;
71496;SDS011;59317;53.218;5.730;2023-07-31T01:52:03;8.65;;;1.60;;
71496;SDS011;59317;53.218;5.730;2023-07-31T01:54:30;8.60;;;1.47;;
71496;SDS011;59317;53.218;5.730;2023-07-31T01:56:56;7.40;;;1.50;;
71496;SDS011;59317;53.218;5.730;2023-07-31T01:59:22;8.80;;;1.60;;
71496;SDS011;59317;53.218;5.730;2023-07-31T02:01:48;7.77;;;1.50;;
71496;SDS011;59317;53.218;5.730;2023-07-31T02:04:14;10.10;;;1.60;;
71496;SDS011;59317;53.218;5.730;2023-07-31T02:06:40;9.57;;;1.60;;
71496;SDS011;59317;53.218;5.730;2023-07-31T02:09:06;8.97;;;1.50;;
71496;SDS011;59317;53.218;5.730;2023-07-31T02:11:32;7.43;;;1.60;;
71496;SDS011;59317;53.218;5.730;2023-07-31T02:13:58;9.10;;;1.87;;
71496;SDS011;59317;53.218;5.730;2023-07-31T02:16:24;12.32;;;1.95;;
71496;SDS011;59317;53.218;5.730;2023-07-31T02:18:50;8.10;;;1.63;;
71496;SDS011;59317;53.218;5.730;2023-07-31T02:21:16;8.40;;;1.80;;
71496;SDS011;59317;53.218;5.730;2023-07-31T02:23:42;12.20;;;2.00;;
71496;SDS011;59317;53.218;5.730;2023-07-31T02:26:08;9.30;;;1.95;;
71496;SDS011;59317;53.218;5.730;2023-07-31T02:28:34;10.15;;;2.10;;
71496;SDS011;59317;53.218;5.730;2023-07-31T02:31:00;8.00;;;1.95;;
71496;SDS011;59317;53.218;5.730;2023-07-31T02:33:26;7.88;;;1.70;;
71496;SDS011;59317;53.218;5.730;2023-07-31T02:35:52;9.27;;;1.90;;
71496;SDS011;59317;53.218;5.730;2023-07-31T02:38:18;8.68;;;1.80;;
71496;SDS011;59317;53.218;5.730;2023-07-31T02:40:44;7.63;;;1.77;;
71496;SDS011;59317;53.218;5.730;2023-07-31T02:43:10;7.63;;;1.80;;
71496;SDS011;59317;53.218;5.730;2023-07-31T02:45:36;9.88;;;2.00;;
71496;SDS011;59317;53.218;5.730;2023-07-31T02:48:02;10.20;;;2.08;;
71496;SDS011;59317;53.218;5.730;2023-07-31T02:50:28;7.77;;;1.97;;
71496;SDS011;59317;53.218;5.730;2023-07-31T02:52:54;10.60;;;2.30;;
71496;SDS011;59317;53.218;5.730;2023-07-31T02:55:20;7.83;;;1.80;;
71496;SDS011;59317;53.218;5.730;2023-07-31T02:57:46;8.27;;;2.10;;
71496;SDS011;59317;53.218;5.730;2023-07-31T03:00:12;9.47;;;1.93;;
71496;SDS011;59317;53.218;5.730;2023-07-31T03:02:38;8.17;;;1.90;;
71496;SDS011;59317;53.218;5.730;2023-07-31T03:05:04;7.20;;;1.70;;
71496;SDS011;59317;53.218;5.730;2023-07-31T03:07:30;7.83;;;1.80;;
71496;SDS011;59317;53.218;5.730;2023-07-31T03:09:56;9.60;;;1.77;;
71496;SDS011;59317;53.218;5.730;2023-07-31T03:12:22;7.33;;;1.70;;
71496;SDS011;59317;53.218;5.730;2023-07-31T03:14:48;6.03;;;1.38;;
71496;SDS011;59317;53.218;5.730;2023-07-31T03:17:15;6.67;;;1.57;;
71496;SDS011;59317;53.218;5.730;2023-07-31T03:19:41;5.00;;;1.45;;
71496;SDS011;59317;53.218;5.730;2023-07-31T03:22:07;5.37;;;1.60;;
71496;SDS011;59317;53.218;5.730;2023-07-31T03:24:33;5.73;;;1.50;;
71496;SDS011;59317;53.218;5.730;2023-07-31T03:26:58;5.27;;;1.80;;
71496;SDS011;59317;53.218;5.730;2023-07-31T03:29:24;6.37;;;1.50;;
71496;SDS011;59317;53.218;5.730;2023-07-31T03:31:50;3.60;;;0.80;;
71496;SDS011;59317;53.218;5.730;2023-07-31T03:34:16;3.35;;;0.70;;
71496;SDS011;59317;53.218;5.730;2023-07-31T03:36:42;3.97;;;0.80;;
71496;SDS011;59317;53.218;5.730;2023-07-31T03:39:09;4.28;;;0.60;;
71496;SDS011;59317;53.218;5.730;2023-07-31T03:41:35;3.73;;;0.50;;
71496;SDS011;59317;53.218;5.730;2023-07-31T03:44:01;2.60;;;0.50;;
71496;SDS011;59317;53.218;5.730;2023-07-31T03:46:27;2.80;;;0.50;;
71496;SDS011;59317;53.218;5.730;2023-07-31T03:48:53;3.63;;;0.50;;
71496;SDS011;59317;53.218;5.730;2023-07-31T03:51:19;3.37;;;0.57;;
71496;SDS011;59317;53.218;5.730;2023-07-31T03:53:45;3.93;;;0.53;;
71496;SDS011;59317;53.218;5.730;2023-07-31T03:56:11;2.92;;;0.55;;
71496;SDS011;59317;53.218;5.730;2023-07-31T03:58:37;3.45;;;0.68;;
71496;SDS011;59317;53.218;5.730;2023-07-31T04:01:03;4.00;;;0.68;;
71496;SDS011;59317;53.218;5.730;2023-07-31T04:03:29;3.53;;;0.70;;
71496;SDS011;59317;53.218;5.730;2023-07-31T04:05:55;5.18;;;1.00;;
71496;SDS011;59317;53.218;5.730;2023-07-31T04:08:22;5.93;;;1.00;;
71496;SDS011;59317;53.218;5.730;2023-07-31T04:10:48;8.23;;;1.20;;
71496;SDS011;59317;53.218;5.730;2023-07-31T04:13:14;7.32;;;1.50;;
71496;SDS011;59317;53.218;5.730;2023-07-31T04:15:40;9.98;;;2.20;;
71496;SDS011;59317;53.218;5.730;2023-07-31T04:18:06;12.87;;;3.50;;
71496;SDS011;59317;53.218;5.730;2023-07-31T04:20:33;15.70;;;4.10;;
71496;SDS011;59317;53.218;5.730;2023-07-31T04:22:59;15.48;;;3.85;;
71496;SDS011;59317;53.218;5.730;2023-07-31T04:25:24;14.30;;;3.80;;
71496;SDS011;59317;53.218;5.730;2023-07-31T04:27:50;13.40;;;3.80;;
71496;SDS011;59317;53.218;5.730;2023-07-31T04:30:17;16.45;;;4.30;;
71496;SDS011;59317;53.218;5.730;2023-07-31T04:32:43;12.00;;;4.00;;
71496;SDS011;59317;53.218;5.730;2023-07-31T04:35:08;13.23;;;3.57;;
71496;SDS011;59317;53.218;5.730;2023-07-31T04:37:34;13.10;;;3.87;;
71496;SDS011;59317;53.218;5.730;2023-07-31T04:40:00;13.97;;;3.87;;
71496;SDS011;59317;53.218;5.730;2023-07-31T04:42:27;16.70;;;3.92;;
71496;SDS011;59317;53.218;5.730;2023-07-31T04:44:53;13.52;;;4.03;;
71496;SDS011;59317;53.218;5.730;2023-07-31T04:47:19;14.30;;;3.67;;
71496;SDS011;59317;53.218;5.730;2023-07-31T04:49:45;13.38;;;3.40;;
71496;SDS011;59317;53.218;5.730;2023-07-31T04:52:11;17.05;;;4.00;;
71496;SDS011;59317;53.218;5.730;2023-07-31T04:54:37;11.43;;;3.47;;
71496;SDS011;59317;53.218;5.730;2023-07-31T04:57:03;14.45;;;3.65;;
71496;SDS011;59317;53.218;5.730;2023-07-31T04:59:29;14.38;;;3.13;;
71496;SDS011;59317;53.218;5.730;2023-07-31T05:01:56;18.83;;;3.65;;
71496;SDS011;59317;53.218;5.730;2023-07-31T05:04:22;19.50;;;3.50;;
71496;SDS011;59317;53.218;5.730;2023-07-31T05:06:48;18.70;;;4.20;;
71496;SDS011;59317;53.218;5.730;2023-07-31T05:09:14;16.15;;;3.95;;
71496;SDS011;59317;53.218;5.730;2023-07-31T05:11:40;19.10;;;4.32;;
71496;SDS011;59317;53.218;5.730;2023-07-31T05:14:07;21.85;;;4.65;;
71496;SDS011;59317;53.218;5.730;2023-07-31T05:16:33;17.60;;;4.45;;
71496;SDS011;59317;53.218;5.730;2023-07-31T05:18:59;21.30;;;4.90;;
71496;SDS011;59317;53.218;5.730;2023-07-31T05:21:25;20.95;;;5.20;;
71496;SDS011;59317;53.218;5.730;2023-07-31T05:23:52;24.30;;;5.43;;
71496;SDS011;59317;53.218;5.730;2023-07-31T05:26:18;22.50;;;5.40;;
71496;SDS011;59317;53.218;5.730;2023-07-31T05:28:45;19.08;;;5.20;;
71496;SDS011;59317;53.218;5.730;2023-07-31T05:31:11;17.73;;;4.53;;
71496;SDS011;59317;53.218;5.730;2023-07-31T05:33:37;19.27;;;4.33;;
71496;SDS011;59317;53.218;5.730;2023-07-31T05:36:03;19.73;;;4.47;;
71496;SDS011;59317;53.218;5.730;2023-07-31T05:38:29;17.27;;;4.00;;
71496;SDS011;59317;53.218;5.730;2023-07-31T05:40:55;18.03;;;4.27;;
71496;SDS011;59317;53.218;5.730;2023-07-31T05:43:21;16.27;;;3.97;;
71496;SDS011;59317;53.218;5.730;2023-07-31T05:45:47;15.57;;;3.50;;
71496;SDS011;59317;53.218;5.730;2023-07-31T05:48:13;13.68;;;3.28;;
71496;SDS011;59317;53.218;5.730;2023-07-31T05:50:39;16.02;;;3.42;;
71496;SDS011;59317;53.218;5.730;2023-07-31T05:53:05;12.75;;;3.00;;
71496;SDS011;59317;53.218;5.730;2023-07-31T05:55:33;11.57;;;2.65;;
71496;SDS011;59317;53.218;5.730;2023-07-31T05:57:59;14.90;;;3.17;;
71496;SDS011;59317;53.218;5.730;2023-07-31T06:00:25;15.32;;;2.95;;
71496;SDS011;59317;53.218;5.730;2023-07-31T06:02:51;17.80;;;3.50;;
71496;SDS011;59317;53.218;5.730;2023-07-31T06:05:17;17.40;;;3.10;;
71496;SDS011;59317;53.218;5.730;2023-07-31T06:07:43;10.27;;;2.60;;
71496;SDS011;59317;53.218;5.730;2023-07-31T06:10:09;12.17;;;2.40;;
71496;SDS011;59317;53.218;5.730;2023-07-31T06:12:35;8.83;;;2.10;;
71496;SDS011;59317;53.218;5.730;2023-07-31T06:15:02;11.02;;;2.13;;
71496;SDS011;59317;53.218;5.730;2023-07-31T06:17:28;11.20;;;2.40;;
71496;SDS011;59317;53.218;5.730;2023-07-31T06:19:56;9.75;;;2.40;;
71496;SDS011;59317;53.218;5.730;2023-07-31T06:22:22;11.88;;;2.55;;
71496;SDS011;59317;53.218;5.730;2023-07-31T06:24:48;11.23;;;2.40;;
71496;SDS011;59317;53.218;5.730;2023-07-31T06:27:14;10.57;;;2.40;;
71496;SDS011;59317;53.218;5.730;2023-07-31T06:29:40;14.90;;;2.88;;
71496;SDS011;59317;53.218;5.730;2023-07-31T06:32:06;13.50;;;3.00;;
71496;SDS011;59317;53.218;5.730;2023-07-31T06:34:32;15.18;;;3.80;;
71496;SDS011;59317;53.218;5.730;2023-07-31T06:36:58;14.00;;;3.30;;
71496;SDS011;59317;53.218;5.730;2023-07-31T06:39:24;15.37;;;3.70;;
71496;SDS011;59317;53.218;5.730;2023-07-31T06:41:50;16.23;;;3.60;;
71496;SDS011;59317;53.218;5.730;2023-07-31T06:44:16;18.43;;;4.20;;
71496;SDS011;59317;53.218;5.730;2023-07-31T06:46:42;15.38;;;3.40;;
71496;SDS011;59317;53.218;5.730;2023-07-31T06:49:08;12.60;;;3.40;;
71496;SDS011;59317;53.218;5.730;2023-07-31T06:51:34;17.67;;;3.70;;
71496;SDS011;59317;53.218;5.730;2023-07-31T06:54:01;13.68;;;3.60;;
71496;SDS011;59317;53.218;5.730;2023-07-31T06:56:27;14.93;;;3.35;;
71496;SDS011;59317;53.218;5.730;2023-07-31T06:58:53;13.13;;;3.30;;
71496;SDS011;59317;53.218;5.730;2023-07-31T07:01:19;10.45;;;2.63;;
71496;SDS011;59317;53.218;5.730;2023-07-31T07:03:45;9.65;;;2.70;;
71496;SDS011;59317;53.218;5.730;2023-07-31T07:06:11;10.80;;;2.70;;
71496;SDS011;59317;53.218;5.730;2023-07-31T07:08:37;10.05;;;2.75;;
71496;SDS011;59317;53.218;5.730;2023-07-31T07:11:03;10.60;;;2.40;;
71496;SDS011;59317;53.218;5.730;2023-07-31T07:13:29;7.72;;;2.30;;
71496;SDS011;59317;53.218;5.730;2023-07-31T07:15:55;8.75;;;2.35;;
71496;SDS011;59317;53.218;5.730;2023-07-31T07:18:21;9.50;;;2.00;;
71496;SDS011;59317;53.218;5.730;2023-07-31T07:20:49;7.72;;;1.60;;
71496;SDS011;59317;53.218;5.730;2023-07-31T07:23:15;8.18;;;1.80;;
71496;SDS011;59317;53.218;5.730;2023-07-31T07:25:42;7.40;;;1.60;;
71496;SDS011;59317;53.218;5.730;2023-07-31T07:28:08;6.78;;;1.25;;
71496;SDS011;59317;53.218;5.730;2023-07-31T07:30:34;6.65;;;1.48;;
71496;SDS011;59317;53.218;5.730;2023-07-31T07:33:00;5.22;;;1.30;;
71496;SDS011;59317;53.218;5.730;2023-07-31T07:35:26;4.80;;;1.10;;
71496;SDS011;59317;53.218;5.730;2023-07-31T07:37:52;5.13;;;1.05;;
71496;SDS011;59317;53.218;5.730;2023-07-31T07:40:18;4.38;;;0.90;;
71496;SDS011;59317;53.218;5.730;2023-07-31T07:42:44;4.32;;;0.90;;
71496;SDS011;59317;53.218;5.730;2023-07-31T07:45:10;4.00;;;0.90;;
71496;SDS011;59317;53.218;5.730;2023-07-31T07:47:37;3.42;;;0.73;;
71496;SDS011;59317;53.218;5.730;2023-07-31T07:50:04;3.60;;;0.80;;
71496;SDS011;59317;53.218;5.730;2023-07-31T07:52:30;4.47;;;0.82;;
71496;SDS011;59317;53.218;5.730;2023-07-31T07:54:56;4.68;;;0.70;;
71496;SDS011;59317;53.218;5.730;2023-07-31T07:57:22;4.95;;;0.68;;
71496;SDS011;59317;53.218;5.730;2023-07-31T07:59:48;4.85;;;0.90;;
71496;SDS011;59317;53.218;5.730;2023-07-31T08:02:14;3.17;;;0.50;;
71496;SDS011;59317;53.218;5.730;2023-07-31T08:04:40;4.68;;;0.65;;
71496;SDS011;59317;53.218;5.730;2023-07-31T08:07:06;4.13;;;0.70;;
71496;SDS011;59317;53.218;5.730;2023-07-31T08:09:32;5.70;;;0.80;;
71496;SDS011;59317;53.218;5.730;2023-07-31T08:11:58;5.07;;;0.70;;
71496;SDS011;59317;53.218;5.730;2023-07-31T08:14:27;6.38;;;0.90;;
71496;SDS011;59317;53.218;5.730;2023-07-31T08:16:53;5.70;;;0.70;;
71496;SDS011;59317;53.218;5.730;2023-07-31T08:19:19;4.97;;;0.70;;
71496;SDS011;59317;53.218;5.730;2023-07-31T08:21:45;4.10;;;0.70;;
71496;SDS011;59317;53.218;5.730;2023-07-31T08:24:11;3.60;;;0.68;;
71496;SDS011;59317;53.218;5.730;2023-07-31T08:26:37;6.72;;;0.70;;
71496;SDS011;59317;53.218;5.730;2023-07-31T08:29:03;4.13;;;0.65;;
71496;SDS011;59317;53.218;5.730;2023-07-31T08:31:29;2.75;;;0.50;;
71496;SDS011;59317;53.218;5.730;2023-07-31T08:33:56;6.22;;;0.60;;
71496;SDS011;59317;53.218;5.730;2023-07-31T08:36:22;5.50;;;0.60;;
71496;SDS011;59317;53.218;5.730;2023-07-31T08:38:48;3.80;;;0.60;;
71496;SDS011;59317;53.218;5.730;2023-07-31T08:41:15;4.73;;;0.70;;
71496;SDS011;59317;53.218;5.730;2023-07-31T08:43:42;5.00;;;0.60;;
71496;SDS011;59317;53.218;5.730;2023-07-31T08:46:09;3.80;;;0.50;;
71496;SDS011;59317;53.218;5.730;2023-07-31T08:48:36;4.97;;;0.60;;
71496;SDS011;59317;53.218;5.730;2023-07-31T08:51:05;2.50;;;0.50;;
71496;SDS011;59317;53.218;5.730;2023-07-31T08:53:32;4.10;;;0.80;;
71496;SDS011;59317;53.218;5.730;2023-07-31T08:55:58;3.33;;;0.50;;
71496;SDS011;59317;53.218;5.730;2023-07-31T08:58:24;3.33;;;0.52;;
71496;SDS011;59317;53.218;5.730;2023-07-31T09:00:51;2.17;;;0.40;;
71496;SDS011;59317;53.218;5.730;2023-07-31T09:03:17;3.42;;;0.50;;
71496;SDS011;59317;53.218;5.730;2023-07-31T09:05:44;2.92;;;0.40;;
71496;SDS011;59317;53.218;5.730;2023-07-31T09:08:12;3.03;;;0.50;;
71496;SDS011;59317;53.218;5.730;2023-07-31T09:10:44;2.50;;;0.57;;
71496;SDS011;59317;53.218;5.730;2023-07-31T09:13:17;2.63;;;0.60;;
71496;SDS011;59317;53.218;5.730;2023-07-31T09:15:43;2.80;;;0.53;;
71496;SDS011;59317;53.218;5.730;2023-07-31T09:18:10;2.93;;;0.50;;
71496;SDS011;59317;53.218;5.730;2023-07-31T09:20:36;1.98;;;0.40;;
71496;SDS011;59317;53.218;5.730;2023-07-31T09:23:08;2.22;;;0.50;;
71496;SDS011;59317;53.218;5.730;2023-07-31T09:25:34;2.60;;;0.50;;
71496;SDS011;59317;53.218;5.730;2023-07-31T09:28:02;2.70;;;0.40;;
71496;SDS011;59317;53.218;5.730;2023-07-31T09:30:28;2.43;;;0.40;;
71496;SDS011;59317;53.218;5.730;2023-07-31T09:33:01;2.00;;;0.30;;
71496;SDS011;59317;53.218;5.730;2023-07-31T09:35:29;1.80;;;0.30;;
71496;SDS011;59317;53.218;5.730;2023-07-31T09:37:57;1.55;;;0.30;;
71496;SDS011;59317;53.218;5.730;2023-07-31T09:42:52;1.73;;;0.40;;
71496;SDS011;59317;53.218;5.730;2023-07-31T09:45:18;4.85;;;0.60;;
71496;SDS011;59317;53.218;5.730;2023-07-31T09:47:48;5.35;;;0.68;;
71496;SDS011;59317;53.218;5.730;2023-07-31T09:50:14;4.30;;;0.40;;
71496;SDS011;59317;53.218;5.730;2023-07-31T09:52:43;2.05;;;0.40;;
71496;SDS011;59317;53.218;5.730;2023-07-31T09:55:09;3.60;;;0.50;;
71496;SDS011;59317;53.218;5.730;2023-07-31T09:57:45;2.72;;;0.50;;
71496;SDS011;59317;53.218;5.730;2023-07-31T10:00:12;3.20;;;0.50;;
71496;SDS011;59317;53.218;5.730;2023-07-31T10:02:39;3.00;;;0.40;;
71496;SDS011;59317;53.218;5.730;2023-07-31T10:05:05;5.47;;;0.80;;
71496;SDS011;59317;53.218;5.730;2023-07-31T10:07:34;4.65;;;0.98;;
71496;SDS011;59317;53.218;5.730;2023-07-31T10:10:01;5.28;;;0.85;;
71496;SDS011;59317;53.218;5.730;2023-07-31T10:12:30;3.95;;;0.68;;
71496;SDS011;59317;53.218;5.730;2023-07-31T10:14:57;4.72;;;0.70;;
71496;SDS011;59317;53.218;5.730;2023-07-31T10:17:25;3.43;;;0.60;;
71496;SDS011;59317;53.218;5.730;2023-07-31T10:19:51;3.65;;;0.65;;
71496;SDS011;59317;53.218;5.730;2023-07-31T10:22:19;4.40;;;0.80;;
71496;SDS011;59317;53.218;5.730;2023-07-31T10:24:45;3.78;;;0.77;;
71496;SDS011;59317;53.218;5.730;2023-07-31T10:27:11;5.43;;;1.00;;
71496;SDS011;59317;53.218;5.730;2023-07-31T10:29:38;6.40;;;1.20;;
71496;SDS011;59317;53.218;5.730;2023-07-31T10:32:04;7.57;;;1.20;;
71496;SDS011;59317;53.218;5.730;2023-07-31T10:34:33;5.72;;;1.20;;
71496;SDS011;59317;53.218;5.730;2023-07-31T10:42:36;5.87;;;1.20;;
71496;SDS011;59317;53.218;5.730;2023-07-31T10:45:08;6.63;;;1.33;;
71496;SDS011;59317;53.218;5.730;2023-07-31T10:47:37;7.07;;;1.08;;
71496;SDS011;59317;53.218;5.730;2023-07-31T10:52:44;4.70;;;0.90;;
71496;SDS011;59317;53.218;5.730;2023-07-31T10:55:28;5.72;;;1.00;;
71496;SDS011;59317;53.218;5.730;2023-07-31T10:57:55;5.77;;;1.03;;
71496;SDS011;59317;53.218;5.730;2023-07-31T11:00:23;5.53;;;1.17;;
71496;SDS011;59317;53.218;5.730;2023-07-31T11:03:06;5.82;;;1.30;;
71496;SDS011;59317;53.218;5.730;2023-07-31T11:08:16;9.07;;;1.50;;
71496;SDS011;59317;53.218;5.730;2023-07-31T11:10:45;7.68;;;1.70;;
71496;SDS011;59317;53.218;5.730;2023-07-31T11:13:12;10.73;;;1.52;;
71496;SDS011;59317;53.218;5.730;2023-07-31T11:15:38;9.25;;;1.65;;
71496;SDS011;59317;53.218;5.730;2023-07-31T11:18:04;9.95;;;1.60;;
71496;SDS011;59317;53.218;5.730;2023-07-31T11:20:34;4.88;;;1.25;;
71496;SDS011;59317;53.218;5.730;2023-07-31T11:23:01;7.72;;;1.30;;
71496;SDS011;59317;53.218;5.730;2023-07-31T11:25:28;5.45;;;1.20;;
71496;SDS011;59317;53.218;5.730;2023-07-31T11:27:54;6.15;;;1.10;;
71496;SDS011;59317;53.218;5.730;2023-07-31T11:30:21;5.30;;;0.90;;
71496;SDS011;59317;53.218;5.730;2023-07-31T11:32:47;5.38;;;1.00;;
71496;SDS011;59317;53.218;5.730;2023-07-31T11:35:13;3.53;;;0.73;;
71496;SDS011;59317;53.218;5.730;2023-07-31T11:37:42;3.97;;;0.70;;
71496;SDS011;59317;53.218;5.730;2023-07-31T11:40:08;3.78;;;0.60;;
71496;SDS011;59317;53.218;5.730;2023-07-31T11:42:35;5.35;;;1.10;;
71496;SDS011;59317;53.218;5.730;2023-07-31T11:45:04;5.23;;;0.90;;
71496;SDS011;59317;53.218;5.730;2023-07-31T11:47:32;3.53;;;0.90;;
71496;SDS011;59317;53.218;5.730;2023-07-31T11:49:59;5.43;;;1.10;;
71496;SDS011;59317;53.218;5.730;2023-07-31T11:52:26;6.70;;;1.33;;
71496;SDS011;59317;53.218;5.730;2023-07-31T11:54:53;6.60;;;1.50;;
71496;SDS011;59317;53.218;5.730;2023-07-31T11:57:19;8.50;;;1.40;;
71496;SDS011;59317;53.218;5.730;2023-07-31T11:59:45;7.25;;;1.50;;
71496;SDS011;59317;53.218;5.730;2023-07-31T12:02:11;8.60;;;1.45;;
71496;SDS011;59317;53.218;5.730;2023-07-31T12:04:37;8.35;;;1.52;;
71496;SDS011;59317;53.218;5.730;2023-07-31T12:07:04;7.05;;;1.42;;
71496;SDS011;59317;53.218;5.730;2023-07-31T12:09:30;9.75;;;1.67;;
71496;SDS011;59317;53.218;5.730;2023-07-31T12:11:56;8.00;;;1.70;;
71496;SDS011;59317;53.218;5.730;2023-07-31T12:14:26;8.13;;;1.83;;
71496;SDS011;59317;53.218;5.730;2023-07-31T12:16:56;9.70;;;1.70;;
71496;SDS011;59317;53.218;5.730;2023-07-31T12:19:22;11.05;;;2.00;;
71496;SDS011;59317;53.218;5.730;2023-07-31T12:21:51;10.68;;;1.92;;
71496;SDS011;59317;53.218;5.730;2023-07-31T12:24:18;10.95;;;1.90;;
71496;SDS011;59317;53.218;5.730;2023-07-31T12:26:45;11.30;;;2.40;;
71496;SDS011;59317;53.218;5.730;2023-07-31T12:29:11;10.02;;;2.40;;
71496;SDS011;59317;53.218;5.730;2023-07-31T12:31:40;10.48;;;2.30;;
71496;SDS011;59317;53.218;5.730;2023-07-31T12:34:14;12.65;;;2.30;;
71496;SDS011;59317;53.218;5.730;2023-07-31T12:36:41;12.85;;;2.17;;
71496;SDS011;59317;53.218;5.730;2023-07-31T12:39:08;10.73;;;2.17;;
71496;SDS011;59317;53.218;5.730;2023-07-31T12:41:34;12.98;;;2.28;;
71496;SDS011;59317;53.218;5.730;2023-07-31T12:44:00;11.70;;;1.85;;
71496;SDS011;59317;53.218;5.730;2023-07-31T12:46:26;11.07;;;2.20;;
71496;SDS011;59317;53.218;5.730;2023-07-31T12:48:52;8.85;;;1.90;;
71496;SDS011;59317;53.218;5.730;2023-07-31T12:51:18;10.07;;;2.28;;
71496;SDS011;59317;53.218;5.730;2023-07-31T12:53:44;11.75;;;1.98;;
71496;SDS011;59317;53.218;5.730;2023-07-31T12:56:10;11.63;;;2.17;;
71496;SDS011;59317;53.218;5.730;2023-07-31T12:58:36;12.10;;;1.95;;
71496;SDS011;59317;53.218;5.730;2023-07-31T13:01:02;10.88;;;2.20;;
71496;SDS011;59317;53.218;5.730;2023-07-31T13:03:28;10.18;;;2.20;;
71496;SDS011;59317;53.218;5.730;2023-07-31T13:05:54;9.43;;;2.13;;
71496;SDS011;59317;53.218;5.730;2023-07-31T13:08:20;10.15;;;2.30;;
71496;SDS011;59317;53.218;5.730;2023-07-31T13:10:46;10.63;;;2.30;;
71496;SDS011;59317;53.218;5.730;2023-07-31T13:13:12;10.95;;;2.17;;
71496;SDS011;59317;53.218;5.730;2023-07-31T13:15:38;9.75;;;2.25;;
71496;SDS011;59317;53.218;5.730;2023-07-31T13:18:04;10.88;;;2.08;;
71496;SDS011;59317;53.218;5.730;2023-07-31T13:20:30;9.82;;;2.25;;
71496;SDS011;59317;53.218;5.730;2023-07-31T13:22:56;9.68;;;2.10;;
71496;SDS011;59317;53.218;5.730;2023-07-31T13:25:22;9.02;;;2.35;;
71496;SDS011;59317;53.218;5.730;2023-07-31T13:27:48;12.57;;;2.50;;
71496;SDS011;59317;53.218;5.730;2023-07-31T13:30:14;10.35;;;2.58;;
71496;SDS011;59317;53.218;5.730;2023-07-31T13:32:40;10.85;;;2.40;;
71496;SDS011;59317;53.218;5.730;2023-07-31T13:35:07;9.60;;;2.25;;
71496;SDS011;59317;53.218;5.730;2023-07-31T13:37:33;10.43;;;2.53;;
71496;SDS011;59317;53.218;5.730;2023-07-31T13:39:59;9.27;;;1.95;;
71496;SDS011;59317;53.218;5.730;2023-07-31T13:42:25;10.95;;;2.42;;
71496;SDS011;59317;53.218;5.730;2023-07-31T13:44:53;9.23;;;2.35;;
71496;SDS011;59317;53.218;5.730;2023-07-31T13:47:23;9.02;;;2.50;;
71496;SDS011;59317;53.218;5.730;2023-07-31T13:49:49;10.80;;;2.50;;
71496;SDS011;59317;53.218;5.730;2023-07-31T13:52:15;13.07;;;2.90;;
71496;SDS011;59317;53.218;5.730;2023-07-31T13:54:41;13.13;;;3.08;;
71496;SDS011;59317;53.218;5.730;2023-07-31T13:57:08;11.57;;;3.37;;
71496;SDS011;59317;53.218;5.730;2023-07-31T13:59:34;13.53;;;3.27;;
71496;SDS011;59317;53.218;5.730;2023-07-31T14:02:00;13.63;;;3.60;;
71496;SDS011;59317;53.218;5.730;2023-07-31T14:04:25;12.70;;;3.30;;
71496;SDS011;59317;53.218;5.730;2023-07-31T14:06:52;15.23;;;3.50;;
71496;SDS011;59317;53.218;5.730;2023-07-31T14:09:18;13.57;;;3.20;;
71496;SDS011;59317;53.218;5.730;2023-07-31T14:11:44;12.02;;;2.80;;
71496;SDS011;59317;53.218;5.730;2023-07-31T14:14:10;12.00;;;2.80;;
71496;SDS011;59317;53.218;5.730;2023-07-31T14:16:36;10.88;;;2.50;;
71496;SDS011;59317;53.218;5.730;2023-07-31T14:19:02;12.07;;;3.10;;
71496;SDS011;59317;53.218;5.730;2023-07-31T14:21:28;12.90;;;3.03;;
71496;SDS011;59317;53.218;5.730;2023-07-31T14:23:54;10.75;;;2.45;;
71496;SDS011;59317;53.218;5.730;2023-07-31T14:26:20;10.32;;;2.60;;
71496;SDS011;59317;53.218;5.730;2023-07-31T14:28:46;13.13;;;2.97;;
71496;SDS011;59317;53.218;5.730;2023-07-31T14:31:12;13.35;;;2.80;;
71496;SDS011;59317;53.218;5.730;2023-07-31T14:33:38;13.48;;;2.97;;
71496;SDS011;59317;53.218;5.730;2023-07-31T14:36:05;14.77;;;2.60;;
71496;SDS011;59317;53.218;5.730;2023-07-31T14:38:31;13.13;;;3.10;;
71496;SDS011;59317;53.218;5.730;2023-07-31T14:40:57;12.98;;;2.83;;
71496;SDS011;59317;53.218;5.730;2023-07-31T14:43:23;16.92;;;2.90;;
71496;SDS011;59317;53.218;5.730;2023-07-31T14:45:49;12.75;;;2.42;;
71496;SDS011;59317;53.218;5.730;2023-07-31T14:48:18;13.90;;;2.92;;
71496;SDS011;59317;53.218;5.730;2023-07-31T14:50:44;14.07;;;2.60;;
71496;SDS011;59317;53.218;5.730;2023-07-31T14:53:10;12.13;;;2.78;;
71496;SDS011;59317;53.218;5.730;2023-07-31T14:55:36;11.63;;;2.50;;
71496;SDS011;59317;53.218;5.730;2023-07-31T14:58:02;13.27;;;2.83;;